createdAt,value
2022-12-22T00:03:12.823Z,92.22
2022-12-22T00:06:03.782Z,95.07
2022-12-22T00:08:50.103Z,93.13
2022-12-22T00:11:39.172Z,92.15
2022-12-22T00:14:32.671Z,95.00
2022-12-22T00:17:42.678Z,95.30
2022-12-22T00:20:36.482Z,97.00
2022-12-22T00:23:24.222Z,94.80
2022-12-22T00:26:10.588Z,99.43
2022-12-22T00:28:57.895Z,101.13
2022-12-22T00:31:45.067Z,101.13
2022-12-22T00:34:39.747Z,99.47
2022-12-22T00:37:30.890Z,99.18
2022-12-22T00:40:39.342Z,108.55
2022-12-22T00:43:34.956Z,103.35
2022-12-22T00:46:22.915Z,106.72
2022-12-22T00:49:15.684Z,104.97
2022-12-22T00:52:05.148Z,99.60
2022-12-22T00:54:53.379Z,110.72
2022-12-22T00:57:47.217Z,108.68
2022-12-22T01:00:38.457Z,114.57
2022-12-22T01:03:29.049Z,109.60
2022-12-22T01:06:18.685Z,112.47
2022-12-22T01:09:08.586Z,106.35
2022-12-22T01:11:55.690Z,108.43
2022-12-22T01:14:41.934Z,108.75
2022-12-22T01:17:29.024Z,112.90
2022-12-22T01:20:15.518Z,104.10
2022-12-22T01:23:01.729Z,107.53
2022-12-22T01:25:49.359Z,112.45
2022-12-22T01:28:36.875Z,110.13
2022-12-22T01:31:37.010Z,110.15
2022-12-22T01:34:24.048Z,112.25
2022-12-22T01:37:10.124Z,118.32
2022-12-22T01:39:59.266Z,112.95
2022-12-22T01:42:53.781Z,113.43
2022-12-22T01:45:44.083Z,108.70
2022-12-22T01:48:32.993Z,107.60
2022-12-22T01:51:25.593Z,110.63
2022-12-22T01:54:17.096Z,113.70
2022-12-22T01:57:07.204Z,117.63
2022-12-22T01:59:58.397Z,110.55
2022-12-22T02:02:46.560Z,114.63
2022-12-22T02:05:35.006Z,120.50
2022-12-22T02:08:36.354Z,116.97
2022-12-22T02:11:38.149Z,118.47
2022-12-22T02:14:39.655Z,114.25
2022-12-22T02:17:39.768Z,120.55
2022-12-22T02:20:54.232Z,115.15
2022-12-22T02:24:13.161Z,118.63
2022-12-22T02:27:26.101Z,120.03
2022-12-22T02:30:16.259Z,114.35
2022-12-22T02:33:10.145Z,126.85
2022-12-22T02:36:05.800Z,118.85
2022-12-22T02:39:05.329Z,119.38
2022-12-22T02:42:01.440Z,125.07
2022-12-22T02:45:01.565Z,117.10
2022-12-22T02:48:00.739Z,125.85
2022-12-22T02:50:54.420Z,130.45
2022-12-22T02:53:42.938Z,118.47
2022-12-22T02:56:30.325Z,116.72
2022-12-22T02:59:17.881Z,114.68
2022-12-22T03:02:07.851Z,126.97
2022-12-22T03:04:54.690Z,122.53
2022-12-22T03:07:40.574Z,121.93
2022-12-22T03:10:32.599Z,123.03
2022-12-22T03:13:19.852Z,124.07
2022-12-22T03:16:06.104Z,130.05
2022-12-22T03:18:57.250Z,118.13
2022-12-22T03:21:43.449Z,119.07
2022-12-22T03:24:36.127Z,123.70
2022-12-22T03:27:05.380Z,127.72
2022-12-22T03:29:33.875Z,124.78
2022-12-22T03:32:05.216Z,121.13
2022-12-22T03:34:35.295Z,128.05
2022-12-22T03:37:03.996Z,122.38
2022-12-22T03:39:33.757Z,125.05
2022-12-22T03:42:21.283Z,123.05
2022-12-22T03:45:07.526Z,117.75
2022-12-22T03:47:35.926Z,125.25
2022-12-22T03:50:08.616Z,108.40
2022-12-22T03:52:38.632Z,113.60
2022-12-22T03:55:09.753Z,112.63
2022-12-22T03:57:41.783Z,110.43
2022-12-22T04:00:13.011Z,109.10
2022-12-22T04:02:42.378Z,100.05
2022-12-22T04:05:13.940Z,101.80
2022-12-22T04:07:46.146Z,109.55
2022-12-22T04:10:32.601Z,102.75
2022-12-22T04:13:03.393Z,99.85
2022-12-22T04:15:34.251Z,104.03
2022-12-22T04:18:03.349Z,102.95
2022-12-22T04:20:33.510Z,101.90
2022-12-22T04:23:02.045Z,102.72
2022-12-22T04:25:31.258Z,105.20
2022-12-22T04:28:00.845Z,106.00
2022-12-22T04:30:29.556Z,102.90
2022-12-22T04:33:01.109Z,110.30
2022-12-22T04:35:30.078Z,112.53
2022-12-22T04:38:01.849Z,106.32
2022-12-22T04:40:31.216Z,110.65
2022-12-22T04:43:00.545Z,113.00
2022-12-22T04:45:29.190Z,121.93
2022-12-22T04:47:58.855Z,124.07
2022-12-22T04:50:28.005Z,125.90
2022-12-22T04:52:57.728Z,132.65
2022-12-22T04:55:27.936Z,132.45
2022-12-22T04:57:57.409Z,136.40
2022-12-22T05:00:26.535Z,132.05
2022-12-22T05:02:55.879Z,144.73
2022-12-22T05:05:24.517Z,135.45
2022-12-22T05:07:54.903Z,146.93
2022-12-22T05:10:23.421Z,147.63
2022-12-22T05:12:59.477Z,151.30
2022-12-22T05:15:31.877Z,144.13
2022-12-22T05:18:04.333Z,160.52
2022-12-22T05:20:33.629Z,151.02
2022-12-22T05:23:03.023Z,149.02
2022-12-22T05:25:35.514Z,162.70
2022-12-22T05:28:06.712Z,165.43
2022-12-22T05:30:35.748Z,166.35
2022-12-22T05:33:06.375Z,167.80
2022-12-22T05:35:34.946Z,163.55
2022-12-22T05:38:03.489Z,171.73
2022-12-22T05:40:32.749Z,171.38
2022-12-22T05:43:03.862Z,175.05
2022-12-22T05:45:35.748Z,157.90
2022-12-22T05:48:04.959Z,157.52
2022-12-22T05:50:33.625Z,148.18
2022-12-22T05:53:02.825Z,148.95
2022-12-22T05:55:31.230Z,143.85
2022-12-22T05:58:01.916Z,147.50
2022-12-22T06:00:33.813Z,141.68
2022-12-22T06:03:03.992Z,109.40
2022-12-22T06:05:36.745Z,107.80
2022-12-22T06:08:08.698Z,104.75
2022-12-22T06:10:38.290Z,107.53
2022-12-22T06:13:07.656Z,98.90
2022-12-22T06:15:38.653Z,106.68
2022-12-22T06:18:08.808Z,106.13
2022-12-22T06:20:38.779Z,110.35
2022-12-22T06:23:09.367Z,111.15
2022-12-22T06:25:39.491Z,129.93
2022-12-22T06:28:09.644Z,135.73
2022-12-22T06:30:41.366Z,135.38
2022-12-22T06:33:11.355Z,145.98
2022-12-22T06:35:39.885Z,140.57
2022-12-22T06:38:08.727Z,139.25
2022-12-22T06:40:37.699Z,148.48
2022-12-22T06:43:09.805Z,133.10
2022-12-22T06:45:42.799Z,144.88
2022-12-22T06:48:14.031Z,156.48
2022-12-22T06:50:43.447Z,132.40
2022-12-22T06:53:12.889Z,132.60
2022-12-22T06:55:52.358Z,130.05
2022-12-22T06:58:21.353Z,130.90
2022-12-22T07:00:51.727Z,130.50
2022-12-22T07:03:21.013Z,130.98
2022-12-22T07:05:50.848Z,131.77
2022-12-22T07:11:20.160Z,130.27
2022-12-22T07:13:49.916Z,121.45
2022-12-22T07:16:20.403Z,141.70
2022-12-22T07:18:49.244Z,176.40
2022-12-22T07:21:18.456Z,149.70
2022-12-22T07:23:47.811Z,139.35
2022-12-22T07:26:17.305Z,166.48
2022-12-22T07:28:45.724Z,223.23
2022-12-22T07:31:23.151Z,164.48
2022-12-22T07:33:53.526Z,261.77
2022-12-22T07:36:22.663Z,236.68
2022-12-22T07:38:52.817Z,203.23
2022-12-22T07:41:39.951Z,225.27
2022-12-22T07:44:10.792Z,225.90
2022-12-22T07:46:44.979Z,201.23
2022-12-22T07:49:31.907Z,213.63
2022-12-22T07:52:04.387Z,177.15
2022-12-22T07:54:41.687Z,128.85
2022-12-22T07:57:14.702Z,123.97
2022-12-22T07:59:43.535Z,124.22
2022-12-22T08:02:14.877Z,117.30
2022-12-22T08:04:44.900Z,110.03
2022-12-22T08:07:13.779Z,107.97
2022-12-22T08:09:45.864Z,112.57
2022-12-22T08:12:14.723Z,115.57
2022-12-22T08:14:46.228Z,108.20
2022-12-22T08:17:17.554Z,111.75
2022-12-22T08:19:46.439Z,106.63
2022-12-22T08:22:15.592Z,97.68
2022-12-22T08:24:45.332Z,106.78
2022-12-22T08:27:25.996Z,99.32
2022-12-22T08:30:00.043Z,91.05
2022-12-22T08:32:30.729Z,95.20
2022-12-22T08:34:59.615Z,108.30
2022-12-22T08:37:30.500Z,99.03
2022-12-22T08:40:05.069Z,99.00
2022-12-22T08:42:37.857Z,98.57
2022-12-22T08:45:09.493Z,98.32
2022-12-22T08:47:39.901Z,100.45
2022-12-22T08:50:16.974Z,107.40
2022-12-22T08:52:48.818Z,93.88
2022-12-22T08:55:19.515Z,98.72
2022-12-22T08:57:56.033Z,102.53
2022-12-22T09:00:25.893Z,97.63
2022-12-22T09:02:57.785Z,122.38
2022-12-22T09:05:26.620Z,143.32
2022-12-22T09:07:57.163Z,156.45
2022-12-22T09:10:26.094Z,175.30
2022-12-22T09:12:55.664Z,120.57
2022-12-22T09:15:24.172Z,115.18
2022-12-22T09:17:53.118Z,118.15
2022-12-22T09:20:24.182Z,111.85
2022-12-22T09:22:52.944Z,104.68
2022-12-22T09:25:22.201Z,88.93
2022-12-22T09:27:51.016Z,94.22
2022-12-22T09:30:19.806Z,94.78
2022-12-22T09:32:48.716Z,89.72
2022-12-22T09:35:18.495Z,79.75
2022-12-22T09:37:49.863Z,76.03
2022-12-22T09:40:22.107Z,90.57
2022-12-22T09:42:51.645Z,75.65
2022-12-22T09:45:21.388Z,62.30
2022-12-22T09:47:53.978Z,49.13
2022-12-22T09:50:27.390Z,57.35
2022-12-22T09:53:02.951Z,52.95
2022-12-22T09:55:42.247Z,49.43
2022-12-22T09:58:26.487Z,69.07
2022-12-22T10:01:10.380Z,96.60
2022-12-22T10:03:49.229Z,78.63
2022-12-22T10:06:22.777Z,72.60
2022-12-22T10:08:55.795Z,43.88
2022-12-22T10:11:29.755Z,31.77
2022-12-22T10:14:04.201Z,28.92
2022-12-22T10:16:33.606Z,25.80
2022-12-22T10:19:11.249Z,28.13
2022-12-22T10:26:28.774Z,26.90
2022-12-22T10:29:05.041Z,20.95
2022-12-22T10:31:37.003Z,17.27
2022-12-22T10:34:16.102Z,25.38
2022-12-22T10:36:49.773Z,20.92
2022-12-22T10:39:25.453Z,17.48
2022-12-22T10:42:01.910Z,27.90
2022-12-22T10:44:35.442Z,22.23
2022-12-22T10:47:20.043Z,22.85
2022-12-22T10:52:40.001Z,24.13
2022-12-22T10:55:21.983Z,23.08
2022-12-22T10:57:52.680Z,23.25
2022-12-22T11:00:29.294Z,22.50
2022-12-22T11:03:01.082Z,25.55
2022-12-22T11:05:30.757Z,18.85
2022-12-22T11:08:05.715Z,18.48
2022-12-22T11:10:40.444Z,23.98
2022-12-22T11:14:03.736Z,16.75
2022-12-22T11:16:41.798Z,11.85
2022-12-22T11:19:39.117Z,26.10
2022-12-22T11:22:24.065Z,18.92
2022-12-22T11:25:16.918Z,16.17
2022-12-22T11:27:59.591Z,19.48
2022-12-22T11:30:44.266Z,16.75
2022-12-22T11:33:34.681Z,15.57
2022-12-22T11:36:09.848Z,13.00
2022-12-22T11:41:37.934Z,16.90
2022-12-22T11:44:50.566Z,17.52
2022-12-22T11:47:31.533Z,15.95
2022-12-22T11:51:01.812Z,22.10
2022-12-22T11:54:10.424Z,12.55
2022-12-22T11:56:54.549Z,16.50
2022-12-22T11:59:50.672Z,22.05
2022-12-22T12:02:57.964Z,14.40
2022-12-22T12:06:32.939Z,20.02
2022-12-22T12:09:39.859Z,18.38
2022-12-22T12:12:22.804Z,15.82
2022-12-22T12:15:18.291Z,17.33
2022-12-22T12:18:38.628Z,17.75
2022-12-22T12:21:28.701Z,24.20
2022-12-22T12:24:38.749Z,18.13
2022-12-22T12:27:37.123Z,19.95
2022-12-22T12:33:25.993Z,15.07
2022-12-22T12:36:19.262Z,16.17
2022-12-22T12:39:09.865Z,15.20
2022-12-22T12:42:02.014Z,13.27
2022-12-22T12:44:41.217Z,15.75
2022-12-22T12:47:36.371Z,12.43
2022-12-22T12:50:40.570Z,13.80
2022-12-22T12:53:24.668Z,20.02
2022-12-22T12:55:58.512Z,13.68
2022-12-22T12:58:59.384Z,16.02
2022-12-22T13:02:03.132Z,13.75
2022-12-22T13:05:13.984Z,14.02
2022-12-22T13:08:19.622Z,18.48
2022-12-22T13:12:01.140Z,14.63
2022-12-22T13:15:10.782Z,26.00
2022-12-22T13:17:54.062Z,27.20
2022-12-22T13:20:28.795Z,32.08
2022-12-22T13:23:00.337Z,31.40
2022-12-22T13:25:45.971Z,27.77
2022-12-22T13:28:19.444Z,32.10
2022-12-22T13:30:55.219Z,36.40
2022-12-22T13:33:31.106Z,32.45
2022-12-22T13:36:02.124Z,30.10
2022-12-22T13:38:35.348Z,31.67
2022-12-22T13:41:21.352Z,31.13
2022-12-22T13:44:01.609Z,30.42
2022-12-22T13:46:35.548Z,33.58
2022-12-22T13:49:05.236Z,33.83
2022-12-22T13:51:37.819Z,30.42
2022-12-22T13:54:17.912Z,32.33
2022-12-22T13:56:51.395Z,31.65
2022-12-22T13:59:29.101Z,36.45
2022-12-22T14:02:05.816Z,31.98
2022-12-22T14:04:35.153Z,34.45
2022-12-22T14:07:14.246Z,34.30
2022-12-22T14:09:55.634Z,34.25
2022-12-22T14:12:41.155Z,40.72
2022-12-22T14:15:18.140Z,36.03
2022-12-22T14:17:53.221Z,38.58
2022-12-22T14:23:00.171Z,37.75
2022-12-22T14:25:33.184Z,38.80
2022-12-22T14:28:03.629Z,40.50
2022-12-22T14:30:38.848Z,42.47
2022-12-22T14:33:33.137Z,43.22
2022-12-22T14:36:25.644Z,38.63
2022-12-22T14:38:57.222Z,47.42
2022-12-22T14:41:46.633Z,47.35
2022-12-22T14:44:20.068Z,48.20
2022-12-22T14:47:12.107Z,44.55
2022-12-22T14:49:52.115Z,45.55
2022-12-22T14:52:27.991Z,51.55
2022-12-22T14:54:57.819Z,46.40
2022-12-22T14:57:35.108Z,48.90
2022-12-22T15:00:08.817Z,52.60
2022-12-22T15:02:41.125Z,49.33
2022-12-22T15:05:25.168Z,54.03
2022-12-22T15:08:06.035Z,53.13
2022-12-22T15:10:41.532Z,57.53
2022-12-22T15:13:26.716Z,56.83
2022-12-22T15:15:56.869Z,61.13
2022-12-22T15:18:28.477Z,52.50
2022-12-22T15:21:00.285Z,58.90
2022-12-22T15:23:29.310Z,54.95
2022-12-22T15:25:58.152Z,58.25
2022-12-22T15:28:27.115Z,61.78
2022-12-22T15:30:57.916Z,57.30
2022-12-22T15:33:27.466Z,60.45
2022-12-22T15:36:01.244Z,67.10
2022-12-22T15:38:36.707Z,66.93
2022-12-22T15:41:08.657Z,62.00
2022-12-22T15:43:57.069Z,61.60
2022-12-22T15:46:30.595Z,62.78
2022-12-22T15:49:00.028Z,59.55
2022-12-22T15:51:32.416Z,58.58
2022-12-22T15:54:02.992Z,67.00
2022-12-22T15:56:34.791Z,66.50
2022-12-22T15:59:03.867Z,64.10
2022-12-22T16:01:33.716Z,71.57
2022-12-22T16:04:02.840Z,69.07
2022-12-22T16:06:34.748Z,74.60
2022-12-22T16:09:07.285Z,68.07
2022-12-22T16:11:36.209Z,76.45
2022-12-22T16:14:05.029Z,71.35
2022-12-22T16:16:33.984Z,77.88
2022-12-22T16:22:39.039Z,70.38
2022-12-22T16:25:17.130Z,78.28
2022-12-22T16:33:38.890Z,83.25
2022-12-22T16:39:14.317Z,83.95
2022-12-22T16:42:00.506Z,83.93
2022-12-22T16:44:32.673Z,84.07
2022-12-22T16:47:18.458Z,91.25
2022-12-22T16:52:26.643Z,91.55
2022-12-22T16:55:02.368Z,92.25
2022-12-22T16:57:45.170Z,103.60
2022-12-22T17:00:19.693Z,100.70
2022-12-22T17:03:01.890Z,100.63
2022-12-22T17:05:44.767Z,95.13
2022-12-22T17:08:27.255Z,103.50
2022-12-22T17:11:09.802Z,105.20
2022-12-22T17:13:40.687Z,104.65
2022-12-22T17:16:17.607Z,103.72
2022-12-22T17:18:46.596Z,105.22
2022-12-22T17:21:18.560Z,110.28
2022-12-22T17:23:49.804Z,104.55
2022-12-22T17:26:24.009Z,106.18
2022-12-22T17:28:53.568Z,110.43
2022-12-22T17:31:24.970Z,109.18
2022-12-22T17:33:54.089Z,102.47
2022-12-22T17:36:33.802Z,118.82
2022-12-22T17:39:06.339Z,105.47
2022-12-22T17:41:36.779Z,105.43
2022-12-22T17:44:05.592Z,107.10
2022-12-22T17:46:34.045Z,103.93
2022-12-22T17:49:02.799Z,113.75
2022-12-22T17:51:31.365Z,100.15
2022-12-22T17:54:00.340Z,106.70
2022-12-22T17:56:31.997Z,101.32
2022-12-22T17:59:01.788Z,111.97
2022-12-22T18:01:33.962Z,104.00
2022-12-22T18:04:02.979Z,110.68
2022-12-22T18:06:36.021Z,102.95
2022-12-22T18:09:05.381Z,106.00
2022-12-22T18:11:36.320Z,97.05
2022-12-22T18:14:07.899Z,101.97
2022-12-22T18:16:36.377Z,92.80
2022-12-22T18:19:05.571Z,95.60
2022-12-22T18:21:34.676Z,92.28
2022-12-22T18:24:05.013Z,92.72
2022-12-22T18:26:33.934Z,83.07
2022-12-22T18:29:04.240Z,88.38
2022-12-22T18:31:34.736Z,82.55
2022-12-22T18:34:03.924Z,77.40
2022-12-22T18:36:34.450Z,78.47
2022-12-22T18:39:05.726Z,79.22
2022-12-22T18:41:36.246Z,81.40
2022-12-22T18:44:05.153Z,81.63
2022-12-22T18:46:35.531Z,79.25
2022-12-22T18:49:06.067Z,93.38
2022-12-22T18:51:34.949Z,81.50
2022-12-22T18:54:04.208Z,81.28
2022-12-22T18:56:34.009Z,76.93
2022-12-22T18:59:02.604Z,75.70
2022-12-22T19:01:33.266Z,71.93
2022-12-22T19:04:05.751Z,65.10
2022-12-22T19:06:34.469Z,71.53
2022-12-22T19:09:04.291Z,66.03
2022-12-22T19:11:34.285Z,63.15
2022-12-22T19:14:02.955Z,63.42
2022-12-22T19:16:31.637Z,62.80
2022-12-22T19:19:01.735Z,66.80
2022-12-22T19:21:32.412Z,59.22
2022-12-22T19:24:01.890Z,62.47
2022-12-22T19:26:30.441Z,56.05
2022-12-22T19:29:02.340Z,54.92
2022-12-22T19:31:34.292Z,55.22
2022-12-22T19:34:06.591Z,54.35
2022-12-22T19:36:37.333Z,56.17
2022-12-22T19:39:06.303Z,60.15
2022-12-22T19:41:45.115Z,59.75
2022-12-22T19:44:21.822Z,65.80
2022-12-22T19:46:52.016Z,59.80
2022-12-22T19:49:24.899Z,58.08
2022-12-22T19:51:57.072Z,60.65
2022-12-22T19:54:28.211Z,70.68
2022-12-22T19:56:57.995Z,59.55
2022-12-22T19:59:38.544Z,66.38
2022-12-22T20:02:26.569Z,65.32
2022-12-22T20:04:56.755Z,66.50
2022-12-22T20:07:29.748Z,60.92
2022-12-22T20:09:58.197Z,63.58
2022-12-22T20:12:30.460Z,70.72
2022-12-22T20:14:59.251Z,72.80
2022-12-22T20:17:29.683Z,69.22
2022-12-22T20:19:58.322Z,73.82
2022-12-22T20:22:28.890Z,76.22
2022-12-22T20:24:58.186Z,74.03
2022-12-22T20:27:35.821Z,82.85
2022-12-22T20:30:05.150Z,83.57
2022-12-22T20:32:33.686Z,85.72
2022-12-22T20:35:06.492Z,79.38
2022-12-22T20:37:37.694Z,77.75
2022-12-22T20:40:20.840Z,82.78
2022-12-22T20:42:50.010Z,82.82
2022-12-22T20:45:21.249Z,90.70
2022-12-22T20:47:50.607Z,83.97
2022-12-22T20:50:26.094Z,89.75
2022-12-22T20:52:57.687Z,87.68
2022-12-22T20:55:28.520Z,94.03
2022-12-22T20:57:57.247Z,95.47
2022-12-22T21:00:29.211Z,95.65
2022-12-22T21:02:58.073Z,101.95
2022-12-22T21:05:26.701Z,102.35
2022-12-22T21:07:56.605Z,103.60
2022-12-22T21:10:27.235Z,107.07
2022-12-22T21:12:56.084Z,109.80
2022-12-22T21:15:28.485Z,111.68
2022-12-22T21:17:58.742Z,119.30
2022-12-22T21:20:30.872Z,111.88
2022-12-22T21:23:01.653Z,113.05
2022-12-22T21:25:30.634Z,115.55
2022-12-22T21:28:00.105Z,122.60
2022-12-22T21:30:29.738Z,120.82
2022-12-22T21:32:58.934Z,142.70
2022-12-22T21:35:32.503Z,124.60
2022-12-22T21:38:03.473Z,124.05
2022-12-22T21:40:34.071Z,123.38
2022-12-22T21:43:02.686Z,131.65
2022-12-22T21:45:35.806Z,122.97
2022-12-22T21:48:13.442Z,137.45
2022-12-22T21:50:42.531Z,129.15
2022-12-22T21:53:19.877Z,131.30
2022-12-22T21:55:51.713Z,134.90
2022-12-22T21:58:21.950Z,129.82
2022-12-22T22:00:51.415Z,142.85
2022-12-22T22:03:20.366Z,133.70
2022-12-22T22:05:49.937Z,124.20
2022-12-22T22:08:21.611Z,139.77
2022-12-22T22:10:50.210Z,132.23
2022-12-22T22:13:19.339Z,135.35
2022-12-22T22:15:48.082Z,128.95
2022-12-22T22:18:19.162Z,137.18
2022-12-22T22:20:51.068Z,138.32
2022-12-22T22:23:21.332Z,148.98
2022-12-22T22:25:57.117Z,157.35
2022-12-22T22:28:27.027Z,141.90
2022-12-22T22:30:55.735Z,147.23
2022-12-22T22:33:24.756Z,133.40
2022-12-22T22:35:54.032Z,128.93
2022-12-22T22:38:24.709Z,132.32
2022-12-22T22:40:53.310Z,134.40
2022-12-22T22:43:30.631Z,129.13
2022-12-22T22:45:59.409Z,133.60
2022-12-22T22:48:27.951Z,122.93
2022-12-22T22:50:56.618Z,147.50
2022-12-22T22:53:26.987Z,124.75
2022-12-22T22:55:55.745Z,125.07
2022-12-22T22:58:24.131Z,115.18
2022-12-22T23:00:52.980Z,122.35
2022-12-22T23:03:30.972Z,106.75
2022-12-22T23:06:03.394Z,108.38
2022-12-22T23:08:34.740Z,104.60
2022-12-22T23:11:05.056Z,85.80
2022-12-22T23:13:33.912Z,79.15
2022-12-22T23:16:05.115Z,86.50
2022-12-22T23:18:36.039Z,69.00
2022-12-22T23:21:08.473Z,72.13
2022-12-22T23:23:40.401Z,65.82
2022-12-22T23:26:10.757Z,64.78
2022-12-22T23:28:41.755Z,56.60
2022-12-22T23:31:15.153Z,61.80
2022-12-22T23:33:43.931Z,59.75
2022-12-22T23:36:12.853Z,64.20
2022-12-22T23:38:43.939Z,63.80
2022-12-22T23:41:19.120Z,61.88
2022-12-22T23:43:49.317Z,58.67
2022-12-22T23:46:20.549Z,58.30
2022-12-22T23:48:53.454Z,57.00
2022-12-22T23:51:23.871Z,58.70
2022-12-22T23:53:54.068Z,53.75
2022-12-22T23:56:22.599Z,55.80
2022-12-22T23:58:54.888Z,55.17
